createdAt,value
2017-10-12T03:24:41.089Z,99.90
2017-10-12T03:27:09.360Z,99.90
2017-10-12T03:29:37.652Z,99.90
2017-10-12T03:32:05.170Z,99.90
2017-10-12T03:34:32.709Z,99.90
2017-10-12T03:37:00.220Z,99.90
2017-10-12T03:39:28.516Z,99.90
2017-10-12T03:41:56.028Z,99.90
2017-10-12T03:44:23.565Z,99.90
2017-10-12T03:46:51.076Z,99.90
2017-10-12T03:49:19.378Z,99.90
2017-10-12T03:51:46.884Z,99.90
2017-10-12T03:54:14.417Z,99.90
2017-10-12T03:56:41.933Z,99.90
2017-10-12T03:59:10.233Z,99.90
2017-10-12T04:01:37.749Z,99.90
2017-10-12T04:04:05.271Z,99.90
2017-10-12T04:06:32.796Z,99.90
2017-10-12T04:09:00.320Z,99.90
2017-10-12T04:11:27.844Z,99.90
2017-10-12T04:13:55.391Z,99.90
2017-10-12T04:16:22.917Z,99.90
2017-10-12T04:23:48.153Z,99.90
2017-10-12T04:26:16.488Z,99.90
2017-10-12T04:28:45.593Z,99.90
2017-10-12T04:31:14.265Z,99.90
2017-10-12T04:33:41.772Z,99.90
2017-10-12T06:10:26.414Z,99.90
2017-10-12T06:12:53.945Z,99.90
2017-10-12T08:59:07.061Z,99.60
2017-10-12T09:01:34.589Z,99.00
2017-10-12T09:04:03.245Z,97.80
2017-10-12T09:06:30.777Z,97.60
2017-10-12T09:08:58.290Z,96.10
2017-10-12T09:11:25.816Z,98.10
2017-10-12T09:13:53.335Z,99.90
2017-10-12T09:43:39.196Z,99.90
2017-10-12T09:46:07.473Z,99.90
2017-10-12T09:48:36.921Z,99.90
2017-10-12T09:51:05.573Z,99.90
2017-10-12T09:53:33.951Z,99.90
2017-10-12T11:22:53.161Z,99.90
2017-10-12T11:25:20.708Z,86.10
2017-10-12T13:44:16.798Z,79.50
2017-10-12T14:01:37.574Z,77.40
2017-10-12T14:04:05.853Z,78.50
2017-10-12T14:06:34.183Z,78.90
2017-10-12T14:09:01.700Z,78.90
2017-10-12T14:11:29.996Z,80.60
2017-10-12T14:43:44.729Z,78.40
2017-10-12T14:46:13.009Z,80.40
2017-10-12T14:48:41.441Z,80.60
2017-10-12T15:13:29.978Z,85.40
2017-10-12T15:16:00.173Z,85.70
2017-10-12T15:18:27.705Z,85.70
2017-10-12T15:20:55.227Z,85.80
2017-10-12T15:23:23.544Z,84.40
2017-10-12T15:33:19.833Z,84.40
2017-10-12T15:38:17.371Z,85.60
2017-10-12T15:40:45.700Z,86.20
2017-10-12T15:43:13.216Z,86.20
2017-10-12T15:45:41.508Z,86.60
2017-10-12T15:48:09.797Z,86.80
2017-10-12T15:55:35.075Z,86.80
2017-10-12T15:58:03.721Z,87.60
2017-10-12T16:00:31.244Z,88.10
2017-10-12T16:02:58.758Z,88.80
